sensor_id;sensor_type;location;lat;lon;timestamp;pressure;altitude;pressure_sealevel;temperature;humidity
3968;BME280;9221;42.646;23.380;2023-05-24T00:02:20;94338.22;;;15.18;72.82
3968;BME280;9221;42.646;23.380;2023-05-24T00:04:47;94261.69;;;14.77;73.17
3968;BME280;9221;42.646;23.380;2023-05-24T00:07:13;94327.88;;;15.08;74.36
3968;BME280;9221;42.646;23.380;2023-05-24T00:09:41;94283.38;;;14.80;75.11
3968;BME280;9221;42.646;23.380;2023-05-24T00:12:06;94309.84;;;14.88;75.14
3968;BME280;9221;42.646;23.380;2023-05-24T00:14:32;94330.06;;;15.19;75.11
3968;BME280;9221;42.646;23.380;2023-05-24T00:16:57;94318.16;;;15.15;74.20
3968;BME280;9221;42.646;23.380;2023-05-24T00:19:23;94321.28;;;15.04;74.45
3968;BME280;9221;42.646;23.380;2023-05-24T00:21:50;94197.06;;;14.10;75.36
3968;BME280;9221;42.646;23.380;2023-05-24T00:24:16;94282.56;;;14.65;75.23
3968;BME280;9221;42.646;23.380;2023-05-24T00:26:41;94327.41;;;15.04;74.76
3968;BME280;9221;42.646;23.380;2023-05-24T00:29:07;94343.16;;;15.06;74.12
3968;BME280;9221;42.646;23.380;2023-05-24T00:31:33;94267.28;;;14.67;74.90
3968;BME280;9221;42.646;23.380;2023-05-24T00:33:59;94301.47;;;14.62;76.31
3968;BME280;9221;42.646;23.380;2023-05-24T00:36:24;94331.81;;;14.82;76.54
3968;BME280;9221;42.646;23.380;2023-05-24T00:38:49;94291.03;;;14.45;76.91
3968;BME280;9221;42.646;23.380;2023-05-24T00:41:16;94337.50;;;14.41;77.95
3968;BME280;9221;42.646;23.380;2023-05-24T00:43:42;94309.94;;;14.27;78.49
3968;BME280;9221;42.646;23.380;2023-05-24T00:48:36;94233.31;;;13.79;77.77
3968;BME280;9221;42.646;23.380;2023-05-24T00:51:02;94291.19;;;14.29;76.79
3968;BME280;9221;42.646;23.380;2023-05-24T00:53:27;94271.31;;;14.10;77.03
3968;BME280;9221;42.646;23.380;2023-05-24T00:55:53;94327.25;;;14.38;77.89
3968;BME280;9221;42.646;23.380;2023-05-24T00:58:19;94311.81;;;14.18;77.18
3968;BME280;9221;42.646;23.380;2023-05-24T01:00:46;94316.44;;;14.25;76.67
3968;BME280;9221;42.646;23.380;2023-05-24T01:03:14;94255.91;;;13.90;76.53
3968;BME280;9221;42.646;23.380;2023-05-24T01:05:39;94294.81;;;14.13;76.65
3968;BME280;9221;42.646;23.380;2023-05-24T01:11:11;94325.69;;;14.29;76.22
3968;BME280;9221;42.646;23.380;2023-05-24T01:16:59;94322.09;;;14.21;76.74
3968;BME280;9221;42.646;23.380;2023-05-24T01:25:47;94325.38;;;14.24;76.87
3968;BME280;9221;42.646;23.380;2023-05-24T01:28:15;94289.09;;;14.01;76.62
3968;BME280;9221;42.646;23.380;2023-05-24T01:30:41;94378.66;;;14.37;76.72
3968;BME280;9221;42.646;23.380;2023-05-24T01:33:07;94278.13;;;13.89;76.54
3968;BME280;9221;42.646;23.380;2023-05-24T01:35:33;94363.19;;;14.26;77.87
3968;BME280;9221;42.646;23.380;2023-05-24T01:38:07;94347.66;;;14.14;77.66
3968;BME280;9221;42.646;23.380;2023-05-24T01:40:34;94351.09;;;14.00;78.33
3968;BME280;9221;42.646;23.380;2023-05-24T01:45:54;94370.47;;;14.24;77.49
3968;BME280;9221;42.646;23.380;2023-05-24T01:48:30;94368.63;;;14.24;77.29
3968;BME280;9221;42.646;23.380;2023-05-24T01:50:59;94325.81;;;14.12;78.04
3968;BME280;9221;42.646;23.380;2023-05-24T01:53:31;94296.56;;;13.82;77.90
3968;BME280;9221;42.646;23.380;2023-05-24T01:56:00;94340.50;;;14.00;78.65
3968;BME280;9221;42.646;23.380;2023-05-24T01:58:27;94368.81;;;13.99;78.55
3968;BME280;9221;42.646;23.380;2023-05-24T02:00:54;94336.13;;;14.07;78.37
3968;BME280;9221;42.646;23.380;2023-05-24T02:03:20;94281.84;;;13.57;78.83
3968;BME280;9221;42.646;23.380;2023-05-24T02:05:46;94326.22;;;13.78;79.06
3968;BME280;9221;42.646;23.380;2023-05-24T02:08:11;94268.38;;;13.35;79.23
3968;BME280;9221;42.646;23.380;2023-05-24T02:10:40;94259.47;;;13.36;79.19
3968;BME280;9221;42.646;23.380;2023-05-24T02:13:06;94296.06;;;13.56;78.94
3968;BME280;9221;42.646;23.380;2023-05-24T02:15:33;94336.31;;;13.82;79.17
3968;BME280;9221;42.646;23.380;2023-05-24T02:18:03;94324.66;;;13.68;79.73
3968;BME280;9221;42.646;23.380;2023-05-24T02:20:29;94307.97;;;13.60;79.21
3968;BME280;9221;42.646;23.380;2023-05-24T02:22:56;94379.19;;;13.63;78.77
3968;BME280;9221;42.646;23.380;2023-05-24T02:25:21;94239.38;;;13.10;79.05
3968;BME280;9221;42.646;23.380;2023-05-24T02:27:47;94317.28;;;13.56;79.30
3968;BME280;9221;42.646;23.380;2023-05-24T02:30:12;94256.56;;;13.14;79.52
3968;BME280;9221;42.646;23.380;2023-05-24T02:32:38;94202.88;;;12.74;79.56
3968;BME280;9221;42.646;23.380;2023-05-24T02:35:04;94320.69;;;13.41;80.40
3968;BME280;9221;42.646;23.380;2023-05-24T02:37:29;94404.44;;;13.34;80.71
3968;BME280;9221;42.646;23.380;2023-05-24T02:39:55;94349.16;;;13.39;80.71
3968;BME280;9221;42.646;23.380;2023-05-24T02:42:20;94268.47;;;13.18;80.42
3968;BME280;9221;42.646;23.380;2023-05-24T02:44:46;94248.31;;;13.09;80.15
3968;BME280;9221;42.646;23.380;2023-05-24T02:47:17;94231.84;;;12.99;80.02
3968;BME280;9221;42.646;23.380;2023-05-24T02:49:43;94314.00;;;13.53;80.30
3968;BME280;9221;42.646;23.380;2023-05-24T02:52:08;94274.69;;;13.26;80.18
3968;BME280;9221;42.646;23.380;2023-05-24T02:54:33;94263.53;;;13.15;79.57
3968;BME280;9221;42.646;23.380;2023-05-24T02:57:01;94327.75;;;13.49;79.45
3968;BME280;9221;42.646;23.380;2023-05-24T02:59:26;94319.47;;;13.52;79.35
3968;BME280;9221;42.646;23.380;2023-05-24T03:01:52;94319.75;;;13.57;78.94
3968;BME280;9221;42.646;23.380;2023-05-24T03:04:17;94263.88;;;13.12;78.41
3968;BME280;9221;42.646;23.380;2023-05-24T03:06:43;94328.41;;;13.51;78.13
3968;BME280;9221;42.646;23.380;2023-05-24T03:09:08;94257.56;;;13.13;77.98
3968;BME280;9221;42.646;23.380;2023-05-24T03:11:34;94355.75;;;13.43;77.92
3968;BME280;9221;42.646;23.380;2023-05-24T03:14:00;94323.75;;;13.53;77.67
3968;BME280;9221;42.646;23.380;2023-05-24T03:16:25;94309.44;;;13.31;78.02
3968;BME280;9221;42.646;23.380;2023-05-24T03:18:51;94347.53;;;13.61;77.96
3968;BME280;9221;42.646;23.380;2023-05-24T03:21:19;94321.31;;;13.43;77.73
3968;BME280;9221;42.646;23.380;2023-05-24T03:23:45;94342.53;;;13.66;76.64
3968;BME280;9221;42.646;23.380;2023-05-24T03:26:11;94280.00;;;13.26;76.80
3968;BME280;9221;42.646;23.380;2023-05-24T03:28:37;94271.91;;;13.27;76.32
3968;BME280;9221;42.646;23.380;2023-05-24T03:31:05;94350.31;;;13.68;76.51
3968;BME280;9221;42.646;23.380;2023-05-24T03:33:31;94339.06;;;13.66;76.15
3968;BME280;9221;42.646;23.380;2023-05-24T03:35:56;94294.81;;;13.43;76.26
3968;BME280;9221;42.646;23.380;2023-05-24T03:38:21;94389.03;;;13.77;75.97
3968;BME280;9221;42.646;23.380;2023-05-24T03:40:47;94293.56;;;13.31;76.06
3968;BME280;9221;42.646;23.380;2023-05-24T03:43:12;94397.31;;;13.74;75.97
3968;BME280;9221;42.646;23.380;2023-05-24T03:45:38;94289.59;;;13.27;76.35
3968;BME280;9221;42.646;23.380;2023-05-24T03:48:03;94299.44;;;13.18;77.35
3968;BME280;9221;42.646;23.380;2023-05-24T03:50:29;94311.41;;;13.06;78.75
3968;BME280;9221;42.646;23.380;2023-05-24T03:52:54;94347.81;;;13.35;79.29
3968;BME280;9221;42.646;23.380;2023-05-24T03:55:20;94349.50;;;13.36;79.41
3968;BME280;9221;42.646;23.380;2023-05-24T03:57:45;94351.16;;;13.37;79.93
3968;BME280;9221;42.646;23.380;2023-05-24T04:00:11;94386.56;;;13.44;79.98
3968;BME280;9221;42.646;23.380;2023-05-24T04:02:37;94292.47;;;13.17;79.51
3968;BME280;9221;42.646;23.380;2023-05-24T04:05:05;94305.31;;;13.28;79.18
3968;BME280;9221;42.646;23.380;2023-05-24T04:07:35;94351.75;;;13.47;79.17
3968;BME280;9221;42.646;23.380;2023-05-24T04:10:02;94292.47;;;13.17;78.82
3968;BME280;9221;42.646;23.380;2023-05-24T04:12:28;94361.56;;;13.70;78.47
3968;BME280;9221;42.646;23.380;2023-05-24T04:14:54;94369.22;;;13.65;78.80
3968;BME280;9221;42.646;23.380;2023-05-24T04:17:19;94365.56;;;13.66;78.15
3968;BME280;9221;42.646;23.380;2023-05-24T04:19:49;94308.38;;;13.48;78.11
3968;BME280;9221;42.646;23.380;2023-05-24T04:22:16;94311.97;;;13.56;77.91
3968;BME280;9221;42.646;23.380;2023-05-24T04:24:45;94306.97;;;13.61;77.58
3968;BME280;9221;42.646;23.380;2023-05-24T04:27:10;94371.59;;;14.06;77.80
3968;BME280;9221;42.646;23.380;2023-05-24T04:29:38;94342.38;;;13.91;77.74
3968;BME280;9221;42.646;23.380;2023-05-24T04:32:04;94354.13;;;14.35;77.21
3968;BME280;9221;42.646;23.380;2023-05-24T04:34:30;94383.00;;;14.53;75.72
3968;BME280;9221;42.646;23.380;2023-05-24T04:37:01;94342.28;;;14.61;75.44
3968;BME280;9221;42.646;23.380;2023-05-24T04:39:28;94363.59;;;15.05;74.78
3968;BME280;9221;42.646;23.380;2023-05-24T04:41:53;94356.41;;;15.21;72.74
3968;BME280;9221;42.646;23.380;2023-05-24T04:44:20;94408.38;;;15.38;72.00
3968;BME280;9221;42.646;23.380;2023-05-24T04:46:46;94318.25;;;15.07;71.67
3968;BME280;9221;42.646;23.380;2023-05-24T04:49:11;94333.56;;;15.05;71.68
3968;BME280;9221;42.646;23.380;2023-05-24T04:51:37;94279.19;;;14.71;71.86
3968;BME280;9221;42.646;23.380;2023-05-24T04:54:05;94421.47;;;15.40;71.54
3968;BME280;9221;42.646;23.380;2023-05-24T04:56:36;94424.56;;;15.59;71.67
3968;BME280;9221;42.646;23.380;2023-05-24T04:59:03;94376.94;;;15.42;71.90
3968;BME280;9221;42.646;23.380;2023-05-24T05:01:30;94335.69;;;15.46;71.64
3968;BME280;9221;42.646;23.380;2023-05-24T05:03:55;94336.97;;;15.50;71.28
3968;BME280;9221;42.646;23.380;2023-05-24T05:06:20;94336.53;;;15.32;71.50
3968;BME280;9221;42.646;23.380;2023-05-24T05:08:46;94379.50;;;15.50;71.88
3968;BME280;9221;42.646;23.380;2023-05-24T05:11:13;94396.88;;;15.68;72.25
3968;BME280;9221;42.646;23.380;2023-05-24T05:13:38;94334.78;;;15.39;72.55
3968;BME280;9221;42.646;23.380;2023-05-24T05:16:04;94367.22;;;15.49;73.72
3968;BME280;9221;42.646;23.380;2023-05-24T05:18:30;94401.06;;;15.77;74.75
3968;BME280;9221;42.646;23.380;2023-05-24T05:20:55;94396.69;;;16.06;74.58
3968;BME280;9221;42.646;23.380;2023-05-24T05:23:21;94401.16;;;16.20;74.49
3968;BME280;9221;42.646;23.380;2023-05-24T05:25:46;94421.38;;;16.36;74.26
3968;BME280;9221;42.646;23.380;2023-05-24T05:28:12;94381.91;;;16.18;74.23
3968;BME280;9221;42.646;23.380;2023-05-24T05:30:37;94368.97;;;16.37;73.40
3968;BME280;9221;42.646;23.380;2023-05-24T05:33:03;94437.16;;;16.60;73.63
3968;BME280;9221;42.646;23.380;2023-05-24T05:35:30;94411.78;;;16.64;73.61
3968;BME280;9221;42.646;23.380;2023-05-24T05:37:55;94351.00;;;16.46;73.66
3968;BME280;9221;42.646;23.380;2023-05-24T05:40:21;94395.50;;;17.02;72.72
3968;BME280;9221;42.646;23.380;2023-05-24T05:42:47;94336.13;;;16.86;72.39
3968;BME280;9221;42.646;23.380;2023-05-24T05:45:13;94405.19;;;17.45;70.58
3968;BME280;9221;42.646;23.380;2023-05-24T05:47:38;94401.97;;;17.21;69.21
3968;BME280;9221;42.646;23.380;2023-05-24T05:50:05;94431.47;;;17.19;69.44
3968;BME280;9221;42.646;23.380;2023-05-24T05:52:30;94442.72;;;17.15;68.81
3968;BME280;9221;42.646;23.380;2023-05-24T05:54:56;94404.53;;;17.42;68.68
3968;BME280;9221;42.646;23.380;2023-05-24T05:57:21;94320.03;;;16.95;68.11
3968;BME280;9221;42.646;23.380;2023-05-24T05:59:48;94392.97;;;17.64;68.12
3968;BME280;9221;42.646;23.380;2023-05-24T06:02:14;94427.72;;;17.84;66.38
3968;BME280;9221;42.646;23.380;2023-05-24T06:04:39;94402.78;;;18.05;65.66
3968;BME280;9221;42.646;23.380;2023-05-24T06:07:05;94415.75;;;18.21;65.04
3968;BME280;9221;42.646;23.380;2023-05-24T06:09:31;94413.13;;;18.35;64.45
3968;BME280;9221;42.646;23.380;2023-05-24T06:11:56;94370.38;;;18.21;63.59
3968;BME280;9221;42.646;23.380;2023-05-24T06:14:22;94425.06;;;18.72;63.46
3968;BME280;9221;42.646;23.380;2023-05-24T06:16:49;94420.56;;;18.86;63.10
3968;BME280;9221;42.646;23.380;2023-05-24T06:19:16;94414.19;;;19.01;62.88
3968;BME280;9221;42.646;23.380;2023-05-24T06:21:43;94361.16;;;18.71;63.05
3968;BME280;9221;42.646;23.380;2023-05-24T06:24:13;94408.22;;;18.85;63.09
3968;BME280;9221;42.646;23.380;2023-05-24T06:26:39;94415.22;;;18.93;63.42
3968;BME280;9221;42.646;23.380;2023-05-24T06:29:05;94401.25;;;18.98;62.22
3968;BME280;9221;42.646;23.380;2023-05-24T06:31:31;94360.13;;;18.78;62.23
3968;BME280;9221;42.646;23.380;2023-05-24T06:33:57;94352.72;;;18.87;61.77
3968;BME280;9221;42.646;23.380;2023-05-24T06:36:22;94393.81;;;19.13;61.69
3968;BME280;9221;42.646;23.380;2023-05-24T06:38:48;94401.59;;;19.48;61.17
3968;BME280;9221;42.646;23.380;2023-05-24T06:41:13;94353.91;;;19.32;60.71
3968;BME280;9221;42.646;23.380;2023-05-24T06:43:38;94395.59;;;19.53;60.01
3968;BME280;9221;42.646;23.380;2023-05-24T06:46:05;94419.97;;;19.90;60.31
3968;BME280;9221;42.646;23.380;2023-05-24T06:48:31;94437.72;;;19.64;59.82
3968;BME280;9221;42.646;23.380;2023-05-24T06:50:57;94430.28;;;19.93;59.76
3968;BME280;9221;42.646;23.380;2023-05-24T06:53:22;94421.59;;;19.98;59.49
3968;BME280;9221;42.646;23.380;2023-05-24T06:55:47;94453.75;;;19.84;58.95
3968;BME280;9221;42.646;23.380;2023-05-24T06:58:13;94393.41;;;19.95;58.88
3968;BME280;9221;42.646;23.380;2023-05-24T07:00:42;94352.44;;;19.94;58.50
3968;BME280;9221;42.646;23.380;2023-05-24T07:03:11;94301.88;;;19.73;58.11
3968;BME280;9221;42.646;23.380;2023-05-24T07:05:36;94413.19;;;20.33;57.73
3968;BME280;9221;42.646;23.380;2023-05-24T07:08:02;94407.41;;;20.36;57.72
3968;BME280;9221;42.646;23.380;2023-05-24T07:10:28;94393.97;;;20.42;57.54
3968;BME280;9221;42.646;23.380;2023-05-24T07:12:54;94358.03;;;20.25;57.42
3968;BME280;9221;42.646;23.380;2023-05-24T07:15:19;94392.81;;;20.57;57.44
3968;BME280;9221;42.646;23.380;2023-05-24T07:17:45;94404.69;;;20.68;56.78
3968;BME280;9221;42.646;23.380;2023-05-24T07:20:10;94432.91;;;20.77;56.86
3968;BME280;9221;42.646;23.380;2023-05-24T07:22:38;94416.91;;;20.95;57.10
3968;BME280;9221;42.646;23.380;2023-05-24T07:25:03;94424.31;;;20.93;57.33
3968;BME280;9221;42.646;23.380;2023-05-24T07:27:29;94350.56;;;20.59;58.10
3968;BME280;9221;42.646;23.380;2023-05-24T07:29:55;94404.84;;;21.05;58.40
3968;BME280;9221;42.646;23.380;2023-05-24T07:32:21;94413.16;;;21.22;58.94
3968;BME280;9221;42.646;23.380;2023-05-24T07:34:47;94415.31;;;21.32;57.57
3968;BME280;9221;42.646;23.380;2023-05-24T07:37:12;94407.50;;;21.30;56.98
3968;BME280;9221;42.646;23.380;2023-05-24T07:39:38;94411.72;;;21.19;58.97
3968;BME280;9221;42.646;23.380;2023-05-24T07:42:04;94413.97;;;21.22;57.55
3968;BME280;9221;42.646;23.380;2023-05-24T07:44:29;94455.09;;;21.16;57.99
3968;BME280;9221;42.646;23.380;2023-05-24T07:46:55;94449.00;;;21.27;57.47
3968;BME280;9221;42.646;23.380;2023-05-24T07:49:21;94409.16;;;21.50;57.01
3968;BME280;9221;42.646;23.380;2023-05-24T07:51:47;94396.19;;;21.46;57.39
3968;BME280;9221;42.646;23.380;2023-05-24T07:54:13;94460.56;;;21.53;55.35
3968;BME280;9221;42.646;23.380;2023-05-24T07:56:41;94415.63;;;21.86;55.07
3968;BME280;9221;42.646;23.380;2023-05-24T07:59:06;94405.22;;;21.89;53.80
3968;BME280;9221;42.646;23.380;2023-05-24T08:01:33;94288.75;;;21.23;53.05
3968;BME280;9221;42.646;23.380;2023-05-24T08:04:02;94399.06;;;21.89;53.54
3968;BME280;9221;42.646;23.380;2023-05-24T08:06:28;94326.75;;;21.57;52.91
3968;BME280;9221;42.646;23.380;2023-05-24T08:08:54;94410.75;;;22.13;51.83
3968;BME280;9221;42.646;23.380;2023-05-24T08:11:20;94370.00;;;21.97;50.11
3968;BME280;9221;42.646;23.380;2023-05-24T08:13:46;94430.25;;;22.39;48.77
3968;BME280;9221;42.646;23.380;2023-05-24T08:16:11;94382.63;;;22.46;48.74
3968;BME280;9221;42.646;23.380;2023-05-24T08:18:37;94404.34;;;22.98;48.91
3968;BME280;9221;42.646;23.380;2023-05-24T08:21:03;94405.47;;;22.91;44.96
3968;BME280;9221;42.646;23.380;2023-05-24T08:23:28;94391.19;;;22.78;46.38
3968;BME280;9221;42.646;23.380;2023-05-24T08:25:56;94434.19;;;23.09;47.95
3968;BME280;9221;42.646;23.380;2023-05-24T08:28:22;94365.66;;;23.47;47.24
3968;BME280;9221;42.646;23.380;2023-05-24T08:30:47;94399.38;;;24.14;44.02
3968;BME280;9221;42.646;23.380;2023-05-24T08:33:13;94363.06;;;24.33;43.35
3968;BME280;9221;42.646;23.380;2023-05-24T08:35:38;94399.59;;;24.87;41.00
3968;BME280;9221;42.646;23.380;2023-05-24T08:38:03;94415.00;;;25.21;40.28
3968;BME280;9221;42.646;23.380;2023-05-24T08:40:29;94384.72;;;25.53;40.13
3968;BME280;9221;42.646;23.380;2023-05-24T08:42:59;94410.06;;;25.68;39.32
3968;BME280;9221;42.646;23.380;2023-05-24T08:45:28;94375.72;;;25.47;37.89
3968;BME280;9221;42.646;23.380;2023-05-24T08:47:54;94430.91;;;25.95;37.30
3968;BME280;9221;42.646;23.380;2023-05-24T08:50:21;94368.69;;;25.90;36.93
3968;BME280;9221;42.646;23.380;2023-05-24T08:52:47;94390.72;;;26.21;35.92
3968;BME280;9221;42.646;23.380;2023-05-24T08:55:13;94358.41;;;26.31;35.41
3968;BME280;9221;42.646;23.380;2023-05-24T08:57:39;94393.00;;;26.84;35.24
3968;BME280;9221;42.646;23.380;2023-05-24T09:00:09;94412.97;;;27.10;34.89
3968;BME280;9221;42.646;23.380;2023-05-24T09:02:39;94360.69;;;27.05;33.49
3968;BME280;9221;42.646;23.380;2023-05-24T09:05:10;94392.94;;;27.44;33.15
3968;BME280;9221;42.646;23.380;2023-05-24T09:07:36;94340.38;;;27.40;32.59
3968;BME280;9221;42.646;23.380;2023-05-24T09:10:06;94358.28;;;27.41;33.06
3968;BME280;9221;42.646;23.380;2023-05-24T09:12:33;94388.63;;;26.50;33.97
3968;BME280;9221;42.646;23.380;2023-05-24T09:14:58;94393.09;;;26.67;34.13
3968;BME280;9221;42.646;23.380;2023-05-24T09:17:25;94426.81;;;26.59;34.21
3968;BME280;9221;42.646;23.380;2023-05-24T09:19:51;94381.16;;;26.90;34.37
3968;BME280;9221;42.646;23.380;2023-05-24T09:22:17;94410.28;;;26.78;34.36
3968;BME280;9221;42.646;23.380;2023-05-24T09:24:50;94399.56;;;27.63;32.99
3968;BME280;9221;42.646;23.380;2023-05-24T09:27:16;94351.47;;;27.96;32.56
3968;BME280;9221;42.646;23.380;2023-05-24T09:29:43;94345.50;;;27.89;32.19
3968;BME280;9221;42.646;23.380;2023-05-24T09:32:11;94388.34;;;27.12;32.04
3968;BME280;9221;42.646;23.380;2023-05-24T09:34:39;94348.38;;;26.87;32.28
3968;BME280;9221;42.646;23.380;2023-05-24T09:37:04;94360.38;;;27.86;32.15
3968;BME280;9221;42.646;23.380;2023-05-24T09:39:31;94357.25;;;27.52;30.35
3968;BME280;9221;42.646;23.380;2023-05-24T09:41:57;94354.00;;;27.55;30.85
3968;BME280;9221;42.646;23.380;2023-05-24T09:44:26;94397.22;;;27.82;29.43
3968;BME280;9221;42.646;23.380;2023-05-24T09:47:01;94412.84;;;26.67;30.25
3968;BME280;9221;42.646;23.380;2023-05-24T09:49:29;94383.34;;;26.93;31.11
3968;BME280;9221;42.646;23.380;2023-05-24T09:51:55;94348.44;;;27.34;30.56
3968;BME280;9221;42.646;23.380;2023-05-24T09:54:20;94383.41;;;28.52;30.32
3968;BME280;9221;42.646;23.380;2023-05-24T09:56:46;94357.16;;;28.94;32.20
3968;BME280;9221;42.646;23.380;2023-05-24T09:59:11;94376.44;;;28.93;30.84
3968;BME280;9221;42.646;23.380;2023-05-24T10:01:38;94348.75;;;27.96;32.34
3968;BME280;9221;42.646;23.380;2023-05-24T10:04:03;94338.94;;;27.80;32.35
3968;BME280;9221;42.646;23.380;2023-05-24T10:06:34;94383.06;;;28.33;33.02
3968;BME280;9221;42.646;23.380;2023-05-24T10:09:03;94338.69;;;28.70;33.91
3968;BME280;9221;42.646;23.380;2023-05-24T10:11:34;94338.41;;;29.08;31.08
3968;BME280;9221;42.646;23.380;2023-05-24T10:14:04;94334.84;;;29.38;32.31
3968;BME280;9221;42.646;23.380;2023-05-24T10:16:31;94343.50;;;29.61;30.14
3968;BME280;9221;42.646;23.380;2023-05-24T10:18:56;94338.00;;;29.77;30.02
3968;BME280;9221;42.646;23.380;2023-05-24T10:21:23;94360.28;;;29.99;31.80
3968;BME280;9221;42.646;23.380;2023-05-24T10:23:50;94348.69;;;29.58;30.06
3968;BME280;9221;42.646;23.380;2023-05-24T10:26:20;94327.72;;;29.63;31.24
3968;BME280;9221;42.646;23.380;2023-05-24T10:28:49;94360.28;;;29.89;27.61
3968;BME280;9221;42.646;23.380;2023-05-24T10:31:23;94360.31;;;29.79;28.80
3968;BME280;9221;42.646;23.380;2023-05-24T10:33:51;94381.19;;;29.99;28.31
3968;BME280;9221;42.646;23.380;2023-05-24T10:36:17;94361.06;;;30.00;28.24
3968;BME280;9221;42.646;23.380;2023-05-24T10:38:46;94335.22;;;30.08;28.62
3968;BME280;9221;42.646;23.380;2023-05-24T10:41:12;94363.56;;;30.51;28.81
3968;BME280;9221;42.646;23.380;2023-05-24T10:43:37;94360.00;;;29.96;27.86
3968;BME280;9221;42.646;23.380;2023-05-24T10:46:03;94314.84;;;29.95;25.79
3968;BME280;9221;42.646;23.380;2023-05-24T10:48:37;94347.25;;;29.91;26.39
3968;BME280;9221;42.646;23.380;2023-05-24T10:54:18;94295.03;;;27.83;29.47
3968;BME280;9221;42.646;23.380;2023-05-24T10:56:49;94341.63;;;28.43;28.39
3968;BME280;9221;42.646;23.380;2023-05-24T10:59:27;94345.75;;;28.77;27.75
3968;BME280;9221;42.646;23.380;2023-05-24T11:01:54;94365.28;;;28.68;28.44
3968;BME280;9221;42.646;23.380;2023-05-24T11:04:21;94291.19;;;28.83;27.76
3968;BME280;9221;42.646;23.380;2023-05-24T11:06:59;94335.97;;;28.76;28.44
3968;BME280;9221;42.646;23.380;2023-05-24T11:09:26;94325.88;;;28.45;28.86
3968;BME280;9221;42.646;23.380;2023-05-24T11:11:57;94293.09;;;28.98;29.54
3968;BME280;9221;42.646;23.380;2023-05-24T11:14:27;94319.06;;;29.51;29.21
3968;BME280;9221;42.646;23.380;2023-05-24T11:16:53;94323.75;;;30.11;27.86
3968;BME280;9221;42.646;23.380;2023-05-24T11:19:22;94291.53;;;30.33;27.71
3968;BME280;9221;42.646;23.380;2023-05-24T11:21:50;94259.47;;;29.70;27.39
3968;BME280;9221;42.646;23.380;2023-05-24T11:24:18;94285.09;;;29.48;27.66
3968;BME280;9221;42.646;23.380;2023-05-24T11:26:44;94323.94;;;29.59;27.74
3968;BME280;9221;42.646;23.380;2023-05-24T11:29:12;94325.50;;;29.81;28.19
3968;BME280;9221;42.646;23.380;2023-05-24T11:31:46;94338.63;;;29.58;28.16
3968;BME280;9221;42.646;23.380;2023-05-24T11:34:11;94333.72;;;29.65;28.68
3968;BME280;9221;42.646;23.380;2023-05-24T11:36:37;94325.75;;;29.84;29.08
3968;BME280;9221;42.646;23.380;2023-05-24T11:39:06;94314.56;;;30.01;27.84
3968;BME280;9221;42.646;23.380;2023-05-24T11:41:37;94316.94;;;30.63;28.59
3968;BME280;9221;42.646;23.380;2023-05-24T11:44:03;94335.53;;;31.25;27.33
3968;BME280;9221;42.646;23.380;2023-05-24T11:46:29;94288.75;;;30.44;27.30
3968;BME280;9221;42.646;23.380;2023-05-24T11:48:56;94331.38;;;30.64;26.93
3968;BME280;9221;42.646;23.380;2023-05-24T11:51:28;94297.81;;;30.74;27.83
3968;BME280;9221;42.646;23.380;2023-05-24T11:53:55;94298.69;;;30.98;28.13
3968;BME280;9221;42.646;23.380;2023-05-24T11:56:20;94269.56;;;30.64;27.60
3968;BME280;9221;42.646;23.380;2023-05-24T11:58:48;94300.03;;;31.30;27.67
3968;BME280;9221;42.646;23.380;2023-05-24T12:01:26;94292.66;;;31.60;27.09
3968;BME280;9221;42.646;23.380;2023-05-24T12:03:51;94296.44;;;32.08;26.25
3968;BME280;9221;42.646;23.380;2023-05-24T12:06:17;94299.81;;;31.99;26.46
3968;BME280;9221;42.646;23.380;2023-05-24T12:08:43;94353.75;;;32.51;26.45
3968;BME280;9221;42.646;23.380;2023-05-24T12:11:10;94275.31;;;32.56;25.73
3968;BME280;9221;42.646;23.380;2023-05-24T12:13:35;94267.44;;;31.93;25.24
3968;BME280;9221;42.646;23.380;2023-05-24T12:16:02;94293.75;;;31.05;25.93
3968;BME280;9221;42.646;23.380;2023-05-24T12:18:27;94272.53;;;31.02;27.66
3968;BME280;9221;42.646;23.380;2023-05-24T12:20:53;94255.56;;;30.42;26.80
3968;BME280;9221;42.646;23.380;2023-05-24T12:23:21;94250.66;;;29.99;28.54
3968;BME280;9221;42.646;23.380;2023-05-24T12:25:47;94244.97;;;30.40;27.16
3968;BME280;9221;42.646;23.380;2023-05-24T12:28:13;94255.19;;;31.22;27.03
3968;BME280;9221;42.646;23.380;2023-05-24T12:30:38;94232.53;;;31.22;26.89
3968;BME280;9221;42.646;23.380;2023-05-24T12:33:10;94250.53;;;30.94;27.27
3968;BME280;9221;42.646;23.380;2023-05-24T12:35:39;94249.84;;;30.78;28.61
3968;BME280;9221;42.646;23.380;2023-05-24T12:38:08;94257.16;;;30.48;27.46
3968;BME280;9221;42.646;23.380;2023-05-24T12:40:34;94247.66;;;30.45;27.80
3968;BME280;9221;42.646;23.380;2023-05-24T12:43:01;94256.53;;;30.61;28.74
3968;BME280;9221;42.646;23.380;2023-05-24T12:45:27;94249.97;;;30.67;28.44
3968;BME280;9221;42.646;23.380;2023-05-24T12:47:53;94276.97;;;31.22;28.17
3968;BME280;9221;42.646;23.380;2023-05-24T12:50:22;94256.34;;;31.41;26.37
3968;BME280;9221;42.646;23.380;2023-05-24T12:52:48;94277.69;;;31.82;25.63
3968;BME280;9221;42.646;23.380;2023-05-24T12:55:18;94251.81;;;31.55;25.65
3968;BME280;9221;42.646;23.380;2023-05-24T12:57:44;94214.25;;;30.34;27.28
3968;BME280;9221;42.646;23.380;2023-05-24T13:00:17;94208.88;;;29.79;27.73
3968;BME280;9221;42.646;23.380;2023-05-24T13:02:42;94206.41;;;29.88;27.20
3968;BME280;9221;42.646;23.380;2023-05-24T13:05:08;94241.44;;;29.29;28.20
3968;BME280;9221;42.646;23.380;2023-05-24T13:07:34;94198.63;;;28.80;29.26
3968;BME280;9221;42.646;23.380;2023-05-24T13:10:00;94237.53;;;29.56;29.01
3968;BME280;9221;42.646;23.380;2023-05-24T13:12:25;94201.41;;;30.05;28.08
3968;BME280;9221;42.646;23.380;2023-05-24T13:14:54;94230.41;;;29.70;27.54
3968;BME280;9221;42.646;23.380;2023-05-24T13:17:19;94229.97;;;30.03;28.68
3968;BME280;9221;42.646;23.380;2023-05-24T13:19:45;94241.72;;;29.93;27.79
3968;BME280;9221;42.646;23.380;2023-05-24T13:22:11;94229.34;;;29.66;28.45
3968;BME280;9221;42.646;23.380;2023-05-24T13:24:37;94189.91;;;29.03;27.35
3968;BME280;9221;42.646;23.380;2023-05-24T13:27:02;94189.91;;;27.95;30.56
3968;BME280;9221;42.646;23.380;2023-05-24T13:29:28;94227.38;;;28.09;31.38